Time;durP1;ratioP1;P1;durP2;ratioP2;P2;SDS_P1;SDS_P2;PMS_P1;PMS_P2;Temp;Humidity;BMP_temperature;BMP_pressure;BME280_temperature;BME280_humidity;BME280_pressure;Samples;Min_cycle;Max_cycle;Signal;HPM_P1;HPM_P2
2021/05/02 00:01:24;;;;;;;17.02;15.23;;;6.50;99.90;;;;;;5026998;28;20445;-84
2021/05/02 00:03:52;;;;;;;18.88;15.05;;;6.40;99.90;;;;;;5034972;28;20498;-83
2021/05/02 00:06:18;;;;;;;16.88;14.15;;;6.40;99.90;;;;;;5054211;28;20395;-83
2021/05/02 00:08:45;;;;;;;15.07;13.45;;;6.30;99.90;;;;;;5043507;28;20514;-84
2021/05/02 00:11:12;;;;;;;20.63;15.10;;;6.20;99.90;;;;;;5030633;28;20430;-84
2021/05/02 00:13:39;;;;;;;17.42;15.52;;;6.20;99.90;;;;;;5031415;28;20433;-84
2021/05/02 00:16:07;;;;;;;17.33;15.05;;;6.10;99.90;;;;;;5030983;28;20427;-84
2021/05/02 00:18:34;;;;;;;18.13;16.23;;;6.10;99.90;;;;;;5030914;28;20476;-84
2021/05/02 00:21:05;;;;;;;20.33;16.88;;;6.00;99.90;;;;;;5030923;28;20431;-84
2021/05/02 00:23:34;;;;;;;18.83;16.83;;;6.00;99.90;;;;;;5031293;28;20427;-84
2021/05/02 00:26:00;;;;;;;20.93;18.53;;;5.90;99.90;;;;;;5031785;28;20431;-84
2021/05/02 00:28:28;;;;;;;19.25;17.20;;;5.90;99.90;;;;;;5035070;28;20484;-84
2021/05/02 00:30:55;;;;;;;18.65;16.75;;;5.90;99.90;;;;;;5035603;28;20435;-84
2021/05/02 00:33:23;;;;;;;20.08;17.98;;;5.80;99.90;;;;;;5035674;28;20435;-84
2021/05/02 00:35:51;;;;;;;22.13;18.93;;;5.80;99.90;;;;;;5035486;28;20504;-84
2021/05/02 00:38:18;;;;;;;19.88;17.25;;;5.80;99.90;;;;;;5043109;28;20438;-84
2021/05/02 00:40:53;;;;;;;21.77;19.17;;;5.80;99.90;;;;;;5054751;28;20537;-84
2021/05/02 00:43:30;;;;;;;22.55;19.80;;;5.80;99.90;;;;;;5048163;28;20557;-84
2021/05/02 00:46:02;;;;;;;23.50;19.30;;;5.80;99.90;;;;;;5058280;28;20418;-84
2021/05/02 00:48:32;;;;;;;20.40;18.30;;;5.90;99.90;;;;;;5040498;28;20772;-84
2021/05/02 00:51:04;;;;;;;21.05;17.20;;;6.00;99.90;;;;;;5038029;28;20423;-84
2021/05/02 00:53:37;;;;;;;24.63;20.10;;;6.00;99.90;;;;;;5043491;28;20453;-84
2021/05/02 00:56:16;;;;;;;21.85;19.23;;;6.10;99.90;;;;;;5053859;28;20442;-84
2021/05/02 00:58:49;;;;;;;23.50;18.60;;;6.10;99.90;;;;;;5054183;28;20431;-84
2021/05/02 01:01:20;;;;;;;20.75;18.65;;;6.20;99.90;;;;;;5038410;28;20426;-84
2021/05/02 01:03:49;;;;;;;23.33;19.10;;;6.30;99.90;;;;;;5036310;28;20450;-84
2021/05/02 01:06:20;;;;;;;19.05;17.02;;;6.20;99.90;;;;;;5034670;28;20431;-84
2021/05/02 01:08:50;;;;;;;22.65;20.25;;;6.10;99.90;;;;;;5034885;28;20946;-84
2021/05/02 01:11:17;;;;;;;22.92;18.70;;;5.90;99.90;;;;;;5034265;28;20425;-84
2021/05/02 01:13:53;;;;;;;23.08;20.27;;;5.80;99.90;;;;;;5034566;28;20423;-84
2021/05/02 01:16:22;;;;;;;24.48;21.10;;;5.70;99.90;;;;;;5033886;28;20481;-84
2021/05/02 01:18:49;;;;;;;23.70;19.60;;;5.60;99.90;;;;;;5033817;28;20522;-84
2021/05/02 01:21:17;;;;;;;24.50;21.95;;;5.60;99.90;;;;;;5034019;28;20431;-84
2021/05/02 01:23:46;;;;;;;23.33;20.83;;;5.50;99.90;;;;;;5033982;28;20419;-84
2021/05/02 01:26:16;;;;;;;24.52;21.90;;;5.40;99.90;;;;;;5033923;28;20427;-84
2021/05/02 01:28:43;;;;;;;26.50;21.73;;;5.40;99.90;;;;;;5033550;28;20430;-84
2021/05/02 01:31:10;;;;;;;26.45;21.35;;;5.30;99.90;;;;;;5034838;28;20760;-84
2021/05/02 01:33:37;;;;;;;24.92;21.67;;;5.30;99.90;;;;;;5038765;28;20423;-84
2021/05/02 01:36:04;;;;;;;24.63;22.02;;;5.20;99.90;;;;;;5040893;28;20450;-84
2021/05/02 01:38:30;;;;;;;28.20;22.95;;;5.20;99.90;;;;;;5034911;28;20492;-84
2021/05/02 01:40:59;;;;;;;27.53;22.50;;;5.30;99.90;;;;;;5018796;28;20780;-84
2021/05/02 01:43:25;;;;;;;26.55;23.35;;;5.30;99.90;;;;;;5034220;28;20439;-84
2021/05/02 01:45:52;;;;;;;24.25;21.40;;;5.30;99.90;;;;;;5033668;28;20455;-84
2021/05/02 01:48:21;;;;;;;23.35;20.77;;;5.30;99.90;;;;;;5033596;28;20423;-84
2021/05/02 01:50:51;;;;;;;25.45;20.92;;;5.30;99.90;;;;;;5033458;28;20771;-84
2021/05/02 01:53:18;;;;;;;25.88;23.08;;;5.20;99.90;;;;;;5033645;28;20446;-84
2021/05/02 01:55:47;;;;;;;23.85;21.25;;;5.20;99.90;;;;;;5033147;28;20804;-84
2021/05/02 01:58:14;;;;;;;24.00;21.40;;;5.10;99.90;;;;;;5033096;28;20795;-84
2021/05/02 02:00:45;;;;;;;24.30;21.70;;;5.10;99.90;;;;;;5033273;28;20426;-84
2021/05/02 02:03:13;;;;;;;24.55;21.92;;;5.10;99.90;;;;;;5033365;28;20430;-84
2021/05/02 02:05:40;;;;;;;25.98;23.27;;;5.20;99.90;;;;;;5033403;28;20438;-84
2021/05/02 02:08:08;;;;;;;24.95;21.55;;;5.20;99.90;;;;;;5033332;28;20457;-84
2021/05/02 02:10:35;;;;;;;25.35;21.88;;;5.30;99.90;;;;;;5033826;28;20474;-85
2021/05/02 02:13:02;;;;;;;23.20;20.52;;;5.30;99.90;;;;;;5037880;28;20423;-85
2021/05/02 02:15:33;;;;;;;23.77;21.17;;;5.30;99.90;;;;;;5034484;28;20425;-84
2021/05/02 02:18:00;;;;;;;26.30;21.95;;;5.30;99.90;;;;;;5036230;28;20431;-85
2021/05/02 02:20:27;;;;;;;24.83;21.63;;;5.30;99.90;;;;;;5034355;28;20833;-85
2021/05/02 02:22:56;;;;;;;24.08;20.83;;;5.30;99.90;;;;;;5033280;28;20434;-85
2021/05/02 02:25:27;;;;;;;23.08;19.42;;;5.40;99.90;;;;;;5032865;28;20434;-84
2021/05/02 02:27:56;;;;;;;25.33;21.27;;;5.40;99.90;;;;;;5033031;28;20419;-85
2021/05/02 02:30:25;;;;;;;23.30;20.35;;;5.40;99.90;;;;;;5032730;28;20450;-84
2021/05/02 02:32:53;;;;;;;23.70;21.10;;;5.50;99.90;;;;;;5033245;28;20423;-84
2021/05/02 02:35:21;;;;;;;23.70;19.27;;;5.50;99.90;;;;;;5032715;28;20477;-85
2021/05/02 02:37:54;;;;;;;23.45;20.77;;;5.60;99.90;;;;;;5033065;28;20790;-85
2021/05/02 02:40:21;;;;;;;21.45;19.15;;;5.70;99.90;;;;;;5032494;28;20423;-84
2021/05/02 02:42:49;;;;;;;21.88;18.10;;;5.70;99.90;;;;;;5032695;28;20756;-84
2021/05/02 02:45:16;;;;;;;22.57;19.20;;;5.70;99.90;;;;;;5032657;28;20423;-85
2021/05/02 02:47:46;;;;;;;21.73;19.00;;;5.80;99.90;;;;;;5032956;28;20425;-85
2021/05/02 02:50:17;;;;;;;22.65;18.45;;;5.80;99.90;;;;;;5032125;28;20423;-85
2021/05/02 02:52:48;;;;;;;19.45;16.65;;;5.80;99.90;;;;;;5032502;28;20431;-85
2021/05/02 02:55:16;;;;;;;20.13;18.02;;;5.80;99.90;;;;;;5032172;28;20427;-85
2021/05/02 02:57:46;;;;;;;22.08;16.83;;;5.90;99.90;;;;;;5032162;28;20799;-85
2021/05/02 03:00:13;;;;;;;19.20;16.95;;;5.90;99.90;;;;;;5032152;28;20430;-85
2021/05/02 03:02:42;;;;;;;18.48;15.98;;;5.90;99.90;;;;;;5018283;28;20450;-85
2021/05/02 03:05:12;;;;;;;17.38;14.68;;;5.90;99.90;;;;;;5033368;28;20435;-85
2021/05/02 03:07:40;;;;;;;17.55;15.65;;;5.90;99.90;;;;;;5032061;28;20427;-85
2021/05/02 03:10:09;;;;;;;17.67;14.90;;;5.90;99.90;;;;;;5032329;28;20423;-85
2021/05/02 03:12:38;;;;;;;15.60;13.50;;;5.90;99.90;;;;;;5032133;28;20456;-84
2021/05/02 03:15:06;;;;;;;15.80;13.00;;;5.90;99.90;;;;;;5031713;28;20449;-85
2021/05/02 03:17:34;;;;;;;14.32;12.20;;;5.90;99.90;;;;;;5031312;28;20427;-85
2021/05/02 03:20:05;;;;;;;15.40;11.50;;;6.00;99.90;;;;;;5032133;28;20422;-85
2021/05/02 03:22:43;;;;;;;13.10;11.30;;;6.00;99.90;;;;;;5031959;28;20518;-85
2021/05/02 03:25:12;;;;;;;14.00;10.52;;;6.00;99.90;;;;;;5032174;28;20427;-85
2021/05/02 03:27:45;;;;;;;14.52;10.30;;;6.00;99.90;;;;;;5031756;28;20427;-85
2021/05/02 03:30:13;;;;;;;12.40;10.80;;;6.00;99.90;;;;;;5032601;28;20918;-85
2021/05/02 03:32:47;;;;;;;12.30;10.15;;;6.10;99.90;;;;;;5032353;28;20435;-85
2021/05/02 03:35:14;;;;;;;11.82;8.57;;;6.00;99.90;;;;;;5032712;28;20435;-83
2021/05/02 03:37:47;;;;;;;15.35;10.10;;;6.10;99.90;;;;;;5032668;28;20431;-84
2021/05/02 03:40:14;;;;;;;12.63;9.93;;;6.10;99.90;;;;;;5036103;28;20426;-85
2021/05/02 03:42:40;;;;;;;11.35;9.32;;;6.10;99.90;;;;;;5038434;28;20427;-84
2021/05/02 03:45:08;;;;;;;13.85;10.30;;;6.10;99.90;;;;;;5038503;28;20435;-84
2021/05/02 03:47:34;;;;;;;10.60;9.50;;;6.10;99.90;;;;;;5032659;28;20431;-84
2021/05/02 03:50:00;;;;;;;19.83;12.95;;;6.20;99.90;;;;;;5032193;28;20423;-84
2021/05/02 03:52:27;;;;;;;16.65;13.80;;;6.30;99.90;;;;;;5032418;28;20423;-84
2021/05/02 03:54:54;;;;;;;18.95;14.80;;;6.20;99.90;;;;;;5032286;28;20443;-84
2021/05/02 03:57:23;;;;;;;18.80;16.75;;;6.20;99.90;;;;;;5031962;28;20435;-84
2021/05/02 03:59:49;;;;;;;18.55;15.70;;;6.20;99.90;;;;;;5031768;28;20899;-84
2021/05/02 04:02:16;;;;;;;18.65;15.68;;;6.20;99.90;;;;;;5035246;28;20865;-84
2021/05/02 04:04:42;;;;;;;22.13;18.08;;;6.20;99.90;;;;;;5036093;28;20846;-84
2021/05/02 04:07:10;;;;;;;21.35;17.70;;;6.10;99.90;;;;;;5036132;28;20430;-84
2021/05/02 04:09:37;;;;;;;20.88;16.80;;;6.10;99.90;;;;;;5036460;28;20465;-84
2021/05/02 04:12:05;;;;;;;19.15;16.40;;;6.10;99.90;;;;;;5036584;28;20419;-84
2021/05/02 04:14:32;;;;;;;19.25;16.23;;;6.00;99.90;;;;;;5035984;28;20426;-84
2021/05/02 04:16:59;;;;;;;17.83;15.82;;;6.10;99.90;;;;;;5036101;28;20481;-85
2021/05/02 04:19:26;;;;;;;16.25;14.18;;;6.10;99.90;;;;;;5035899;28;20435;-85
2021/05/02 04:21:53;;;;;;;18.08;14.90;;;6.00;99.90;;;;;;5036098;28;20423;-84
2021/05/02 04:24:19;;;;;;;19.83;15.10;;;6.10;99.90;;;;;;5036272;28;20925;-84
2021/05/02 04:26:47;;;;;;;17.25;14.38;;;6.10;99.90;;;;;;5035670;28;20440;-84
2021/05/02 04:29:14;;;;;;;18.73;14.48;;;6.10;99.90;;;;;;5037745;28;20427;-84
2021/05/02 04:31:40;;;;;;;18.10;14.40;;;6.10;99.90;;;;;;5045241;28;20419;-83
2021/05/02 04:34:07;;;;;;;16.77;12.80;;;6.10;99.90;;;;;;5041010;28;20423;-84
2021/05/02 04:36:33;;;;;;;15.93;12.55;;;6.10;99.90;;;;;;5036122;28;20427;-84
2021/05/02 04:39:00;;;;;;;14.90;13.30;;;6.20;99.90;;;;;;5035585;28;20892;-84
2021/05/02 04:41:27;;;;;;;15.27;13.57;;;6.10;99.90;;;;;;5035623;28;20426;-84
2021/05/02 04:43:53;;;;;;;15.18;12.98;;;6.10;99.90;;;;;;5035644;28;20767;-84
2021/05/02 04:46:21;;;;;;;15.40;13.27;;;6.20;99.90;;;;;;5035446;28;20925;-85
2021/05/02 04:48:47;;;;;;;15.27;13.68;;;6.20;99.90;;;;;;5039345;28;20419;-84
2021/05/02 04:51:14;;;;;;;18.23;13.98;;;6.20;99.90;;;;;;5041694;28;20423;-84
2021/05/02 04:53:42;;;;;;;16.55;14.10;;;6.10;99.90;;;;;;5039561;28;20423;-84
2021/05/02 04:56:08;;;;;;;15.20;13.45;;;6.20;99.90;;;;;;5040110;28;20431;-84
2021/05/02 04:58:35;;;;;;;15.40;12.98;;;6.10;99.90;;;;;;5046856;28;20443;-84
2021/05/02 05:01:01;;;;;;;16.17;13.27;;;6.10;99.90;;;;;;5045973;28;20479;-84
2021/05/02 05:03:28;;;;;;;18.35;13.70;;;6.10;99.90;;;;;;5046582;28;20921;-84
2021/05/02 05:05:55;;;;;;;16.33;13.50;;;6.10;99.90;;;;;;5047493;28;20486;-84
2021/05/02 05:08:21;;;;;;;15.48;11.75;;;6.20;99.90;;;;;;5054620;28;20419;-84
2021/05/02 05:10:47;;;;;;;16.83;13.20;;;6.20;99.90;;;;;;5054888;28;20445;-84
2021/05/02 05:13:14;;;;;;;13.90;11.30;;;6.20;99.90;;;;;;5053837;28;20423;-84
2021/05/02 05:15:40;;;;;;;13.75;11.02;;;6.20;99.90;;;;;;5053995;28;20427;-84
2021/05/02 05:18:06;;;;;;;15.55;12.70;;;6.20;99.90;;;;;;5053225;28;20427;-84
2021/05/02 05:20:33;;;;;;;13.70;11.77;;;6.20;99.90;;;;;;5040678;28;20442;-85
2021/05/02 05:23:00;;;;;;;13.50;11.50;;;6.20;99.90;;;;;;5035831;28;20430;-84
2021/05/02 05:25:26;;;;;;;13.40;10.75;;;6.20;99.90;;;;;;5035744;28;20434;-84
2021/05/02 05:27:52;;;;;;;14.75;12.23;;;6.30;99.90;;;;;;5034747;28;20439;-84
2021/05/02 05:30:18;;;;;;;13.35;11.35;;;6.30;99.90;;;;;;5034760;28;20427;-84
2021/05/02 05:32:45;;;;;;;13.55;11.77;;;6.30;99.90;;;;;;5034473;28;20526;-84
2021/05/02 05:35:11;;;;;;;12.70;10.48;;;6.30;99.90;;;;;;5034084;28;20426;-84
2021/05/02 05:37:39;;;;;;;13.57;10.50;;;6.30;99.90;;;;;;5034413;28;20427;-85
2021/05/02 05:40:06;;;;;;;14.55;10.73;;;6.40;99.90;;;;;;5035431;28;20434;-84
2021/05/02 05:42:33;;;;;;;10.93;9.43;;;6.40;99.90;;;;;;5035482;28;20938;-84
2021/05/02 05:44:59;;;;;;;10.45;9.23;;;6.40;99.90;;;;;;5034631;28;20431;-84
2021/05/02 05:47:26;;;;;;;13.70;10.65;;;6.40;99.90;;;;;;5035916;28;20419;-84
2021/05/02 05:49:52;;;;;;;13.40;10.68;;;6.40;99.90;;;;;;5040562;28;20490;-85
2021/05/02 05:52:19;;;;;;;11.05;9.38;;;6.40;99.90;;;;;;5034104;28;20427;-85
2021/05/02 05:54:46;;;;;;;11.25;10.05;;;6.40;99.90;;;;;;5034216;28;20502;-85
2021/05/02 05:57:12;;;;;;;13.50;10.20;;;6.60;99.90;;;;;;5034711;28;20427;-86
2021/05/02 05:59:38;;;;;;;13.48;9.73;;;6.40;99.90;;;;;;5034744;28;20438;-86
2021/05/02 06:02:05;;;;;;;11.65;10.40;;;6.40;99.90;;;;;;5035234;28;20427;-86
2021/05/02 06:04:31;;;;;;;12.35;10.48;;;6.40;99.90;;;;;;5032559;28;20437;-86
2021/05/02 06:06:57;;;;;;;13.73;10.23;;;6.50;99.90;;;;;;5029063;28;20415;-86
2021/05/02 06:09:24;;;;;;;13.43;9.32;;;6.40;99.90;;;;;;4956981;28;20402;-86
2021/05/02 06:11:52;;;;;;;14.60;8.67;;;6.50;99.90;;;;;;5019752;28;20429;-87
2021/05/02 06:14:18;;;;;;;12.63;9.07;;;6.50;99.90;;;;;;5023776;28;20423;-86
2021/05/02 06:16:45;;;;;;;11.33;9.13;;;6.60;99.90;;;;;;5048917;28;20407;-86
2021/05/02 06:19:11;;;;;;;12.02;8.50;;;6.60;99.90;;;;;;5057723;28;20449;-86
2021/05/02 06:21:37;;;;;;;11.45;7.97;;;6.60;99.90;;;;;;5057457;28;20417;-85
2021/05/02 06:24:05;;;;;;;12.55;7.55;;;6.70;99.90;;;;;;5047767;28;20433;-85
2021/05/02 06:26:31;;;;;;;10.77;8.07;;;6.80;99.90;;;;;;5031857;28;20432;-85
2021/05/02 06:28:58;;;;;;;13.52;9.05;;;6.80;99.90;;;;;;5039968;28;20468;-85
2021/05/02 06:31:25;;;;;;;10.35;8.35;;;6.90;99.90;;;;;;5039037;28;20419;-86
2021/05/02 06:33:51;;;;;;;10.55;8.13;;;6.90;99.90;;;;;;5040556;28;20420;-86
2021/05/02 06:36:17;;;;;;;10.30;7.10;;;7.00;99.90;;;;;;5037557;28;20450;-85
2021/05/02 06:38:44;;;;;;;10.70;7.30;;;7.10;99.90;;;;;;5021650;28;20930;-86
2021/05/02 06:41:10;;;;;;;10.90;7.38;;;7.30;99.90;;;;;;5031181;28;20430;-86
2021/05/02 06:43:37;;;;;;;9.40;7.05;;;7.30;99.90;;;;;;5027929;28;20433;-85
2021/05/02 06:46:04;;;;;;;8.45;6.85;;;7.50;99.90;;;;;;5029043;28;20423;-84
2021/05/02 06:48:31;;;;;;;9.23;6.88;;;7.70;99.90;;;;;;5015198;28;20421;-85
2021/05/02 06:50:58;;;;;;;8.63;6.50;;;7.70;99.90;;;;;;5027866;28;20417;-84
2021/05/02 06:53:24;;;;;;;10.10;6.97;;;7.70;99.90;;;;;;5026530;28;20420;-83
2021/05/02 06:55:50;;;;;;;9.40;6.10;;;7.70;99.90;;;;;;5035037;28;20427;-83
2021/05/02 06:58:16;;;;;;;8.48;5.75;;;7.90;99.90;;;;;;5038878;28;20431;-82
2021/05/02 07:00:43;;;;;;;7.53;6.05;;;7.90;99.90;;;;;;5045195;28;20484;-87
2021/05/02 07:03:11;;;;;;;7.55;5.28;;;8.00;99.90;;;;;;5042457;28;20437;-86
2021/05/02 07:05:37;;;;;;;8.77;4.65;;;8.10;99.90;;;;;;5034723;28;20424;-86
2021/05/02 07:08:04;;;;;;;7.88;5.00;;;8.30;99.90;;;;;;5032169;28;20419;-86
2021/05/02 07:10:30;;;;;;;8.27;6.20;;;8.40;99.90;;;;;;5031511;28;20426;-84
2021/05/02 07:12:57;;;;;;;7.85;4.70;;;8.40;99.90;;;;;;5031568;28;20419;-85
2021/05/02 07:15:23;;;;;;;6.95;5.00;;;8.40;99.90;;;;;;5033347;28;20427;-84
2021/05/02 07:17:50;;;;;;;7.60;5.30;;;8.50;99.90;;;;;;5032877;28;20430;-85
2021/05/02 07:20:18;;;;;;;7.15;4.25;;;8.60;99.90;;;;;;5033667;28;20917;-85
2021/05/02 07:22:51;;;;;;;7.80;4.40;;;8.50;99.90;;;;;;5032727;28;20457;-85
2021/05/02 07:25:21;;;;;;;6.50;3.58;;;8.50;99.90;;;;;;5033079;28;20430;-86
2021/05/02 07:27:48;;;;;;;9.00;3.70;;;8.50;99.90;;;;;;5035451;28;20439;-87
2021/05/02 07:30:15;;;;;;;6.25;3.40;;;8.60;99.90;;;;;;5034727;28;20501;-86
2021/05/02 07:32:41;;;;;;;6.38;3.20;;;8.60;99.90;;;;;;5031579;28;20504;-83
2021/05/02 07:35:09;;;;;;;5.15;3.40;;;8.40;99.90;;;;;;5036378;28;20453;-83
2021/05/02 07:37:36;;;;;;;6.32;3.30;;;8.60;99.90;;;;;;5034115;28;20941;-83
2021/05/02 07:40:04;;;;;;;5.63;3.40;;;8.60;99.90;;;;;;5037035;28;20433;-84
2021/05/02 07:42:30;;;;;;;6.82;3.50;;;8.60;99.90;;;;;;5038073;28;20435;-84
2021/05/02 07:44:57;;;;;;;5.65;2.72;;;8.70;99.90;;;;;;5035458;28;20423;-84
2021/05/02 07:47:24;;;;;;;4.88;3.10;;;8.80;99.90;;;;;;5036969;28;20418;-85
2021/05/02 07:49:51;;;;;;;8.35;3.50;;;9.20;99.90;;;;;;5035731;28;20906;-85
2021/05/02 07:52:17;;;;;;;6.68;3.50;;;9.30;99.90;;;;;;5036774;28;20426;-84
2021/05/02 07:54:45;;;;;;;5.38;3.28;;;9.40;99.90;;;;;;5035098;28;20462;-84
2021/05/02 07:57:11;;;;;;;4.00;2.58;;;9.20;99.90;;;;;;5035232;28;20425;-85
2021/05/02 07:59:38;;;;;;;7.07;3.28;;;9.20;99.90;;;;;;5036376;28;20933;-85
2021/05/02 08:02:05;;;;;;;5.55;2.70;;;9.10;99.90;;;;;;5035347;28;20972;-85
2021/05/02 08:04:34;;;;;;;6.28;3.30;;;9.20;99.90;;;;;;5036270;28;20434;-85
2021/05/02 08:07:00;;;;;;;4.77;2.67;;;9.40;99.90;;;;;;5035670;28;20508;-84
2021/05/02 08:09:27;;;;;;;4.20;2.70;;;9.80;99.90;;;;;;5036800;28;20423;-85
2021/05/02 08:11:54;;;;;;;5.07;2.90;;;9.70;99.90;;;;;;5036147;28;20425;-85
2021/05/02 08:14:23;;;;;;;4.30;2.90;;;9.80;99.90;;;;;;5036281;28;20438;-85
2021/05/02 08:16:49;;;;;;;7.60;3.00;;;9.70;99.90;;;;;;5036623;28;20446;-85
2021/05/02 08:19:15;;;;;;;5.60;2.67;;;9.40;99.90;;;;;;5036468;28;20488;-84
2021/05/02 08:21:43;;;;;;;5.05;2.88;;;9.00;99.90;;;;;;5036185;28;20422;-84
2021/05/02 08:24:11;;;;;;;6.90;2.78;;;8.90;99.90;;;;;;5036533;28;20775;-84
2021/05/02 08:26:39;;;;;;;5.65;2.70;;;8.90;99.90;;;;;;5036569;28;20451;-84
2021/05/02 08:29:07;;;;;;;6.75;3.08;;;9.10;99.90;;;;;;5035040;28;20948;-84
2021/05/02 08:31:34;;;;;;;5.90;3.17;;;9.20;99.90;;;;;;5036742;28;20474;-85
2021/05/02 08:34:01;;;;;;;6.03;2.40;;;9.30;99.90;;;;;;5036209;28;20411;-85
2021/05/02 08:36:27;;;;;;;7.20;3.00;;;9.40;99.90;;;;;;5035767;28;20438;-85
2021/05/02 08:38:54;;;;;;;5.30;2.80;;;9.80;99.90;;;;;;5034240;28;20430;-85
2021/05/02 08:41:21;;;;;;;3.53;2.70;;;10.20;99.90;;;;;;5035766;28;20472;-85
2021/05/02 08:43:51;;;;;;;7.20;2.67;;;10.50;99.90;;;;;;5035291;28;20435;-85
2021/05/02 08:46:19;;;;;;;6.20;2.90;;;10.30;99.90;;;;;;5033862;28;20415;-85
2021/05/02 08:48:45;;;;;;;8.50;3.90;;;10.00;99.90;;;;;;5033883;28;20450;-85
2021/05/02 08:51:12;;;;;;;5.60;3.42;;;9.60;99.90;;;;;;5034787;28;20431;-85
2021/05/02 08:53:38;;;;;;;5.10;3.03;;;9.40;99.90;;;;;;5035462;28;20430;-84
2021/05/02 08:56:05;;;;;;;7.85;3.53;;;9.30;99.90;;;;;;5018039;28;20470;-85
2021/05/02 08:58:32;;;;;;;9.13;3.70;;;9.30;99.90;;;;;;5029292;28;20430;-86
2021/05/02 09:00:59;;;;;;;7.68;3.95;;;9.20;99.90;;;;;;5040201;28;20565;-85
2021/05/02 09:03:39;;;;;;;6.35;4.10;;;9.40;99.90;;;;;;5035940;28;20422;-86
2021/05/02 09:06:15;;;;;;;9.10;3.90;;;9.70;99.90;;;;;;5033392;28;20938;-87
2021/05/02 09:08:41;;;;;;;7.32;4.05;;;9.70;99.90;;;;;;5020185;28;20933;-86
2021/05/02 09:11:09;;;;;;;6.50;3.00;;;9.70;99.90;;;;;;5039396;28;20891;-86
2021/05/02 09:13:45;;;;;;;6.95;3.08;;;9.30;99.90;;;;;;5036847;28;20431;-87
2021/05/02 09:16:12;;;;;;;6.35;3.00;;;9.40;99.90;;;;;;5037694;28;20982;-85
2021/05/02 09:18:41;;;;;;;6.80;3.00;;;9.60;99.90;;;;;;5037442;28;20434;-86
2021/05/02 09:21:09;;;;;;;6.60;3.90;;;9.90;99.90;;;;;;5040492;28;20415;-85
2021/05/02 09:23:37;;;;;;;4.50;2.80;;;10.10;99.90;;;;;;5032792;28;20918;-85
2021/05/02 09:26:05;;;;;;;7.68;3.58;;;10.30;99.90;;;;;;5035387;28;20473;-86
2021/05/02 09:28:43;;;;;;;5.50;3.63;;;10.30;99.90;;;;;;5035034;28;20505;-85
2021/05/02 09:31:11;;;;;;;5.00;3.25;;;10.00;99.90;;;;;;5033656;28;20422;-85
2021/05/02 09:33:39;;;;;;;6.95;3.03;;;9.80;99.90;;;;;;5033515;28;20834;-84
2021/05/02 09:36:08;;;;;;;8.50;3.53;;;9.80;99.90;;;;;;5033726;28;20415;-84
2021/05/02 09:38:34;;;;;;;5.28;2.92;;;9.80;99.90;;;;;;5030955;28;20441;-85
2021/05/02 09:41:02;;;;;;;4.47;2.30;;;9.80;99.90;;;;;;5033459;28;20430;-85
2021/05/02 09:43:30;;;;;;;6.80;3.07;;;9.80;99.90;;;;;;5023913;28;20492;-86
2021/05/02 09:46:30;;;;;;;5.22;2.42;;;10.00;99.90;;;;;;5033192;28;20427;-85
2021/05/02 09:49:14;;;;;;;4.70;2.60;;;10.10;99.90;;;;;;5018670;28;20477;-86
2021/05/02 09:51:46;;;;;;;5.40;2.97;;;10.10;99.90;;;;;;5032833;28;20431;-86
2021/05/02 09:54:15;;;;;;;4.57;2.72;;;10.00;99.90;;;;;;5033288;28;20461;-85
2021/05/02 09:56:45;;;;;;;5.18;2.90;;;10.00;99.90;;;;;;5029790;28;20438;-86
2021/05/02 09:59:29;;;;;;;6.43;3.15;;;9.90;99.90;;;;;;5024057;28;20526;-85
2021/05/02 10:02:22;;;;;;;5.20;2.60;;;9.80;99.90;;;;;;5022308;28;20513;-85
2021/05/02 10:04:52;;;;;;;4.57;2.50;;;9.90;99.90;;;;;;5012659;28;20412;-85
2021/05/02 10:07:20;;;;;;;5.13;3.22;;;10.10;99.90;;;;;;5022928;28;20449;-86
2021/05/02 10:09:47;;;;;;;5.88;2.63;;;10.40;99.90;;;;;;5033068;28;20911;-85
2021/05/02 10:12:16;;;;;;;5.13;2.47;;;10.50;99.90;;;;;;5030622;28;20794;-85
2021/05/02 10:14:43;;;;;;;5.38;2.63;;;10.50;99.90;;;;;;5032996;28;20656;-84
2021/05/02 10:17:10;;;;;;;4.93;3.03;;;10.50;99.90;;;;;;4947204;28;20419;-85
2021/05/02 10:19:36;;;;;;;5.45;2.75;;;10.60;99.90;;;;;;5024126;28;20815;-87
2021/05/02 10:22:04;;;;;;;4.60;2.60;;;10.40;99.90;;;;;;5038460;28;20473;-85
2021/05/02 10:24:30;;;;;;;4.43;2.60;;;10.30;99.90;;;;;;5033736;28;21186;-87
2021/05/02 10:26:57;;;;;;;4.60;2.80;;;10.20;99.90;;;;;;5029579;28;20461;-85
2021/05/02 10:29:25;;;;;;;6.25;2.50;;;10.20;99.90;;;;;;5030679;28;20426;-86
2021/05/02 10:31:58;;;;;;;6.53;2.70;;;10.40;99.90;;;;;;5027256;28;20431;-86
2021/05/02 10:34:33;;;;;;;3.90;2.53;;;10.50;99.90;;;;;;5029002;28;20447;-88
2021/05/02 10:37:30;;;;;;;4.05;2.30;;;10.70;99.90;;;;;;5031543;28;20435;-86
2021/05/02 10:39:57;;;;;;;7.50;2.75;;;10.90;99.90;;;;;;5031939;28;20548;-86
2021/05/02 10:42:41;;;;;;;5.80;3.10;;;11.00;99.90;;;;;;5034547;28;20434;-86
2021/05/02 10:45:37;;;;;;;3.20;1.95;;;11.00;99.90;;;;;;5031900;28;20438;-87
2021/05/02 10:48:05;;;;;;;4.10;2.30;;;10.90;99.90;;;;;;5028837;28;20431;-87
2021/05/02 10:50:34;;;;;;;5.07;2.30;;;10.80;99.90;;;;;;5031799;28;20518;-86
2021/05/02 10:53:05;;;;;;;6.60;2.50;;;10.70;99.90;;;;;;5032452;28;20438;-86
2021/05/02 10:55:48;;;;;;;4.00;2.20;;;10.70;99.90;;;;;;5032049;28;20435;-87
2021/05/02 10:58:19;;;;;;;3.40;2.40;;;10.70;99.90;;;;;;5031637;28;20470;-86
2021/05/02 11:00:50;;;;;;;5.00;2.70;;;10.50;99.90;;;;;;5032167;28;20438;-86
2021/05/02 11:03:53;;;;;;;5.40;2.45;;;10.50;99.90;;;;;;5030771;28;20434;-86
2021/05/02 11:06:55;;;;;;;4.53;2.40;;;10.50;99.90;;;;;;5031104;28;20470;-85
2021/05/02 11:09:25;;;;;;;2.85;1.90;;;10.40;99.90;;;;;;5032647;28;20907;-86
2021/05/02 11:11:54;;;;;;;5.77;2.60;;;10.50;99.90;;;;;;5028212;28;20926;-86
2021/05/02 11:14:33;;;;;;;3.60;2.50;;;10.60;99.90;;;;;;5019158;28;21078;-86
2021/05/02 11:17:20;;;;;;;5.72;2.42;;;10.70;99.90;;;;;;5030108;28;20443;-86
2021/05/02 11:19:47;;;;;;;6.30;2.10;;;10.80;99.90;;;;;;5028704;28;20449;-86
2021/05/02 11:22:15;;;;;;;3.30;1.80;;;11.00;99.90;;;;;;5033098;28;20494;-84
2021/05/02 11:25:10;;;;;;;3.20;1.80;;;11.30;99.90;;;;;;5031628;28;20427;-86
2021/05/02 11:30:35;;;;;;;5.40;2.47;;;11.20;99.90;;;;;;5024573;28;20403;-88
2021/05/02 11:33:03;;;;;;;5.60;2.50;;;11.20;99.90;;;;;;5031025;28;20869;-87
2021/05/02 11:35:52;;;;;;;2.97;1.80;;;11.20;99.90;;;;;;5033093;28;20434;-88
2021/05/02 11:38:20;;;;;;;3.67;1.80;;;11.50;99.90;;;;;;5031994;28;20431;-87
2021/05/02 11:40:56;;;;;;;3.60;1.80;;;12.20;99.90;;;;;;5031847;28;20833;-87
2021/05/02 11:43:27;;;;;;;3.17;1.53;;;12.10;99.90;;;;;;5030957;28;21032;-86
2021/05/02 11:45:55;;;;;;;4.47;1.70;;;12.20;99.90;;;;;;5030185;28;20925;-85
2021/05/02 11:48:26;;;;;;;4.50;1.90;;;12.20;99.90;;;;;;5031587;28;20493;-87
2021/05/02 11:50:57;;;;;;;2.60;1.60;;;12.00;99.90;;;;;;5033390;28;20465;-87
2021/05/02 11:53:38;;;;;;;3.30;1.83;;;11.60;99.90;;;;;;5031529;28;20569;-88
2021/05/02 11:56:16;;;;;;;4.30;2.17;;;11.30;99.90;;;;;;5018729;28;20463;-89
2021/05/02 11:58:43;;;;;;;4.22;2.00;;;11.40;99.90;;;;;;5037046;28;20438;-89
2021/05/02 12:01:16;;;;;;;3.10;1.90;;;11.30;99.90;;;;;;5050306;28;20402;-90
2021/05/02 12:03:45;;;;;;;5.13;2.63;;;11.30;99.90;;;;;;5054579;28;20510;-87
2021/05/02 12:06:23;;;;;;;4.17;2.00;;;11.50;99.90;;;;;;5051219;28;20489;-87
2021/05/02 12:08:54;;;;;;;3.35;2.00;;;11.70;99.90;;;;;;5054728;28;20427;-89
2021/05/02 12:11:46;;;;;;;3.30;1.80;;;12.00;99.90;;;;;;5051171;28;20419;-90
2021/05/02 12:14:17;;;;;;;3.90;1.97;;;12.00;99.90;;;;;;5051800;28;20457;-88
2021/05/02 12:16:48;;;;;;;4.95;2.20;;;11.90;99.90;;;;;;5050864;28;20423;-90
2021/05/02 12:19:16;;;;;;;4.65;2.05;;;11.90;99.90;;;;;;5043576;28;20439;-88
2021/05/02 12:21:52;;;;;;;3.97;1.90;;;11.80;99.90;;;;;;5035523;28;20439;-90
2021/05/02 12:24:23;;;;;;;4.00;1.67;;;11.90;99.90;;;;;;5039612;28;20419;-91
2021/05/02 12:26:52;;;;;;;4.60;1.92;;;12.00;99.90;;;;;;5037855;28;20521;-89
2021/05/02 12:29:19;;;;;;;3.67;2.20;;;12.80;99.90;;;;;;5038231;28;20422;-90
2021/05/02 12:31:53;;;;;;;4.10;2.10;;;12.70;99.90;;;;;;5037344;28;20946;-91
2021/05/02 12:34:22;;;;;;;4.65;1.70;;;12.60;99.90;;;;;;5038165;28;20461;-90
2021/05/02 12:36:50;;;;;;;3.20;1.60;;;12.70;99.90;;;;;;5038064;28;20435;-87
2021/05/02 12:39:17;;;;;;;3.20;1.80;;;12.10;99.90;;;;;;5032648;28;20871;-86
2021/05/02 12:41:55;;;;;;;3.33;1.60;;;11.70;99.90;;;;;;5035779;28;20435;-90
2021/05/02 12:44:25;;;;;;;4.13;2.13;;;11.50;99.90;;;;;;5035372;28;20446;-92
2021/05/02 12:46:54;;;;;;;3.20;1.50;;;11.30;99.90;;;;;;5036959;28;20585;-91
2021/05/02 12:49:27;;;;;;;2.80;1.75;;;11.40;99.90;;;;;;5037380;28;20431;-92
2021/05/02 12:51:57;;;;;;;3.92;2.08;;;11.30;99.90;;;;;;5040647;28;20431;-92
2021/05/02 12:54:26;;;;;;;4.40;2.30;;;11.30;99.90;;;;;;5040923;28;20513;-91
2021/05/02 12:57:06;;;;;;;5.10;2.42;;;11.00;99.90;;;;;;5035597;28;20442;-86
2021/05/02 12:59:38;;;;;;;3.65;2.25;;;10.90;99.90;;;;;;5038397;28;20538;-85